sensor_id;sensor_type;location;lat;lon;timestamp;P1;durP1;ratioP1;P2;durP2;ratioP2
11817;SDS011;5966;52.402;5.322;2022-10-31T00:01:10;5.77;;;2.97;;
11817;SDS011;5966;52.402;5.322;2022-10-31T00:03:38;3.23;;;2.80;;
11817;SDS011;5966;52.402;5.322;2022-10-31T00:06:06;3.93;;;2.77;;
11817;SDS011;5966;52.402;5.322;2022-10-31T00:11:28;4.87;;;2.83;;
11817;SDS011;5966;52.402;5.322;2022-10-31T00:13:56;5.67;;;3.03;;
11817;SDS011;5966;52.402;5.322;2022-10-31T00:16:24;5.23;;;2.83;;
11817;SDS011;5966;52.402;5.322;2022-10-31T00:18:54;4.57;;;3.00;;
11817;SDS011;5966;52.402;5.322;2022-10-31T00:21:23;4.13;;;2.73;;
11817;SDS011;5966;52.402;5.322;2022-10-31T00:23:52;5.37;;;2.93;;
11817;SDS011;5966;52.402;5.322;2022-10-31T00:26:20;4.63;;;3.00;;
11817;SDS011;5966;52.402;5.322;2022-10-31T00:28:49;4.87;;;2.90;;
11817;SDS011;5966;52.402;5.322;2022-10-31T00:31:18;5.10;;;3.10;;
11817;SDS011;5966;52.402;5.322;2022-10-31T00:33:45;4.90;;;2.87;;
11817;SDS011;5966;52.402;5.322;2022-10-31T00:36:17;5.37;;;3.17;;
11817;SDS011;5966;52.402;5.322;2022-10-31T00:38:54;3.13;;;2.80;;
11817;SDS011;5966;52.402;5.322;2022-10-31T00:41:22;3.37;;;2.87;;
11817;SDS011;5966;52.402;5.322;2022-10-31T00:43:51;5.27;;;2.63;;
11817;SDS011;5966;52.402;5.322;2022-10-31T00:46:19;4.87;;;3.00;;
11817;SDS011;5966;52.402;5.322;2022-10-31T00:48:47;6.80;;;3.40;;
11817;SDS011;5966;52.402;5.322;2022-10-31T00:51:15;4.97;;;2.60;;
11817;SDS011;5966;52.402;5.322;2022-10-31T00:53:48;3.57;;;3.00;;
11817;SDS011;5966;52.402;5.322;2022-10-31T00:56:16;4.93;;;2.93;;
11817;SDS011;5966;52.402;5.322;2022-10-31T00:58:44;3.47;;;2.60;;
11817;SDS011;5966;52.402;5.322;2022-10-31T01:04:35;5.13;;;3.20;;
11817;SDS011;5966;52.402;5.322;2022-10-31T01:07:03;4.03;;;2.60;;
11817;SDS011;5966;52.402;5.322;2022-10-31T01:09:34;6.63;;;3.17;;
11817;SDS011;5966;52.402;5.322;2022-10-31T01:12:06;5.43;;;2.83;;
11817;SDS011;5966;52.402;5.322;2022-10-31T01:14:34;5.73;;;3.10;;
11817;SDS011;5966;52.402;5.322;2022-10-31T01:17:02;5.30;;;2.80;;
11817;SDS011;5966;52.402;5.322;2022-10-31T01:19:30;4.90;;;3.20;;
11817;SDS011;5966;52.402;5.322;2022-10-31T01:21:59;5.67;;;2.93;;
11817;SDS011;5966;52.402;5.322;2022-10-31T01:24:28;7.73;;;3.00;;
11817;SDS011;5966;52.402;5.322;2022-10-31T01:26:56;3.27;;;2.93;;
11817;SDS011;5966;52.402;5.322;2022-10-31T01:29:23;5.77;;;3.30;;
11817;SDS011;5966;52.402;5.322;2022-10-31T01:31:51;6.40;;;3.40;;
11817;SDS011;5966;52.402;5.322;2022-10-31T01:34:19;6.10;;;3.37;;
11817;SDS011;5966;52.402;5.322;2022-10-31T01:36:47;5.53;;;3.10;;
11817;SDS011;5966;52.402;5.322;2022-10-31T01:39:19;4.63;;;3.40;;
11817;SDS011;5966;52.402;5.322;2022-10-31T01:41:52;5.60;;;3.70;;
11817;SDS011;5966;52.402;5.322;2022-10-31T01:44:55;5.43;;;3.37;;
11817;SDS011;5966;52.402;5.322;2022-10-31T01:47:28;5.73;;;3.63;;
11817;SDS011;5966;52.402;5.322;2022-10-31T01:50:11;4.93;;;3.50;;
11817;SDS011;5966;52.402;5.322;2022-10-31T01:52:43;5.57;;;3.53;;
11817;SDS011;5966;52.402;5.322;2022-10-31T01:55:17;5.63;;;3.50;;
11817;SDS011;5966;52.402;5.322;2022-10-31T01:57:55;4.70;;;3.37;;
11817;SDS011;5966;52.402;5.322;2022-10-31T02:00:27;8.03;;;3.70;;
11817;SDS011;5966;52.402;5.322;2022-10-31T02:02:57;7.77;;;3.83;;
11817;SDS011;5966;52.402;5.322;2022-10-31T02:05:33;3.83;;;3.43;;
11817;SDS011;5966;52.402;5.322;2022-10-31T02:08:06;4.40;;;3.43;;
11817;SDS011;5966;52.402;5.322;2022-10-31T02:10:39;3.87;;;3.27;;
11817;SDS011;5966;52.402;5.322;2022-10-31T02:13:16;4.87;;;3.67;;
11817;SDS011;5966;52.402;5.322;2022-10-31T02:15:49;5.77;;;3.47;;
11817;SDS011;5966;52.402;5.322;2022-10-31T02:18:19;5.67;;;4.10;;
11817;SDS011;5966;52.402;5.322;2022-10-31T02:20:49;6.37;;;3.60;;
11817;SDS011;5966;52.402;5.322;2022-10-31T02:23:39;6.23;;;4.00;;
11817;SDS011;5966;52.402;5.322;2022-10-31T02:29:46;4.87;;;3.70;;
11817;SDS011;5966;52.402;5.322;2022-10-31T02:32:36;4.60;;;4.10;;
11817;SDS011;5966;52.402;5.322;2022-10-31T02:35:27;4.63;;;3.83;;
11817;SDS011;5966;52.402;5.322;2022-10-31T02:38:08;5.30;;;4.30;;
11817;SDS011;5966;52.402;5.322;2022-10-31T02:40:47;6.87;;;3.87;;
11817;SDS011;5966;52.402;5.322;2022-10-31T02:43:21;5.27;;;3.53;;
11817;SDS011;5966;52.402;5.322;2022-10-31T02:45:57;5.37;;;4.47;;
11817;SDS011;5966;52.402;5.322;2022-10-31T02:48:32;6.27;;;4.47;;
11817;SDS011;5966;52.402;5.322;2022-10-31T02:51:03;6.27;;;4.20;;
11817;SDS011;5966;52.402;5.322;2022-10-31T02:53:33;6.10;;;4.07;;
11817;SDS011;5966;52.402;5.322;2022-10-31T02:56:05;6.73;;;4.47;;
11817;SDS011;5966;52.402;5.322;2022-10-31T02:58:39;6.70;;;3.87;;
11817;SDS011;5966;52.402;5.322;2022-10-31T03:01:39;6.63;;;4.13;;
11817;SDS011;5966;52.402;5.322;2022-10-31T03:07:33;5.27;;;4.17;;
11817;SDS011;5966;52.402;5.322;2022-10-31T03:10:14;7.67;;;4.40;;
11817;SDS011;5966;52.402;5.322;2022-10-31T03:12:48;5.70;;;4.43;;
11817;SDS011;5966;52.402;5.322;2022-10-31T03:15:23;6.80;;;4.30;;
11817;SDS011;5966;52.402;5.322;2022-10-31T03:18:15;7.63;;;4.43;;
11817;SDS011;5966;52.402;5.322;2022-10-31T03:20:50;6.60;;;4.80;;
11817;SDS011;5966;52.402;5.322;2022-10-31T03:23:24;5.53;;;4.83;;
11817;SDS011;5966;52.402;5.322;2022-10-31T03:26:04;12.47;;;4.40;;
11817;SDS011;5966;52.402;5.322;2022-10-31T03:28:38;7.10;;;4.90;;
11817;SDS011;5966;52.402;5.322;2022-10-31T03:31:16;7.63;;;4.70;;
11817;SDS011;5966;52.402;5.322;2022-10-31T03:33:47;5.27;;;4.70;;
11817;SDS011;5966;52.402;5.322;2022-10-31T03:36:34;7.63;;;5.23;;
11817;SDS011;5966;52.402;5.322;2022-10-31T03:42:14;5.73;;;5.00;;
11817;SDS011;5966;52.402;5.322;2022-10-31T03:44:45;5.43;;;4.70;;
11817;SDS011;5966;52.402;5.322;2022-10-31T03:47:18;6.13;;;5.30;;
11817;SDS011;5966;52.402;5.322;2022-10-31T03:49:47;6.33;;;4.83;;
11817;SDS011;5966;52.402;5.322;2022-10-31T03:52:18;6.47;;;5.63;;
11817;SDS011;5966;52.402;5.322;2022-10-31T03:54:52;7.00;;;5.33;;
11817;SDS011;5966;52.402;5.322;2022-10-31T03:57:26;7.80;;;5.30;;
11817;SDS011;5966;52.402;5.322;2022-10-31T04:00:00;7.07;;;5.97;;
11817;SDS011;5966;52.402;5.322;2022-10-31T04:02:32;7.53;;;6.27;;
11817;SDS011;5966;52.402;5.322;2022-10-31T04:05:03;7.20;;;5.50;;
11817;SDS011;5966;52.402;5.322;2022-10-31T04:07:33;7.43;;;6.10;;
11817;SDS011;5966;52.402;5.322;2022-10-31T04:10:04;6.40;;;5.27;;
11817;SDS011;5966;52.402;5.322;2022-10-31T04:13:00;6.90;;;6.20;;
11817;SDS011;5966;52.402;5.322;2022-10-31T04:15:35;9.27;;;6.60;;
11817;SDS011;5966;52.402;5.322;2022-10-31T04:18:28;7.93;;;5.73;;
11817;SDS011;5966;52.402;5.322;2022-10-31T04:20:59;10.47;;;6.37;;
11817;SDS011;5966;52.402;5.322;2022-10-31T04:23:43;9.03;;;6.53;;
11817;SDS011;5966;52.402;5.322;2022-10-31T04:26:15;6.67;;;5.77;;
11817;SDS011;5966;52.402;5.322;2022-10-31T04:28:44;8.37;;;6.60;;
11817;SDS011;5966;52.402;5.322;2022-10-31T04:31:13;8.67;;;6.37;;
11817;SDS011;5966;52.402;5.322;2022-10-31T04:33:56;8.40;;;6.40;;
11817;SDS011;5966;52.402;5.322;2022-10-31T04:36:24;10.07;;;6.37;;
11817;SDS011;5966;52.402;5.322;2022-10-31T04:38:52;7.20;;;5.93;;
11817;SDS011;5966;52.402;5.322;2022-10-31T04:41:19;7.33;;;6.37;;
11817;SDS011;5966;52.402;5.322;2022-10-31T04:43:49;8.73;;;6.23;;
11817;SDS011;5966;52.402;5.322;2022-10-31T04:46:17;7.37;;;6.60;;
11817;SDS011;5966;52.402;5.322;2022-10-31T04:48:44;7.93;;;6.10;;
11817;SDS011;5966;52.402;5.322;2022-10-31T04:51:13;7.43;;;5.80;;
11817;SDS011;5966;52.402;5.322;2022-10-31T04:53:43;8.23;;;6.37;;
11817;SDS011;5966;52.402;5.322;2022-10-31T04:56:11;7.20;;;6.13;;
11817;SDS011;5966;52.402;5.322;2022-10-31T04:58:39;8.27;;;6.17;;
11817;SDS011;5966;52.402;5.322;2022-10-31T05:01:14;6.63;;;5.90;;
11817;SDS011;5966;52.402;5.322;2022-10-31T05:03:42;9.40;;;6.77;;
11817;SDS011;5966;52.402;5.322;2022-10-31T05:06:10;8.00;;;6.70;;
11817;SDS011;5966;52.402;5.322;2022-10-31T05:08:38;8.97;;;6.80;;
11817;SDS011;5966;52.402;5.322;2022-10-31T05:11:06;7.50;;;6.70;;
11817;SDS011;5966;52.402;5.322;2022-10-31T05:13:34;7.83;;;6.83;;
11817;SDS011;5966;52.402;5.322;2022-10-31T05:16:20;7.20;;;5.90;;
11817;SDS011;5966;52.402;5.322;2022-10-31T05:18:48;8.20;;;6.90;;
11817;SDS011;5966;52.402;5.322;2022-10-31T05:21:18;9.30;;;7.63;;
11817;SDS011;5966;52.402;5.322;2022-10-31T05:23:47;8.77;;;7.23;;
11817;SDS011;5966;52.402;5.322;2022-10-31T05:26:15;7.53;;;6.73;;
11817;SDS011;5966;52.402;5.322;2022-10-31T05:28:45;10.17;;;8.03;;
11817;SDS011;5966;52.402;5.322;2022-10-31T05:31:13;12.20;;;8.00;;
11817;SDS011;5966;52.402;5.322;2022-10-31T05:33:42;8.03;;;7.23;;
11817;SDS011;5966;52.402;5.322;2022-10-31T05:36:18;9.97;;;7.80;;
11817;SDS011;5966;52.402;5.322;2022-10-31T05:38:46;10.03;;;7.80;;
11817;SDS011;5966;52.402;5.322;2022-10-31T05:41:15;9.27;;;8.23;;
11817;SDS011;5966;52.402;5.322;2022-10-31T05:43:47;11.53;;;8.53;;
11817;SDS011;5966;52.402;5.322;2022-10-31T05:46:15;9.90;;;8.60;;
11817;SDS011;5966;52.402;5.322;2022-10-31T05:48:47;10.60;;;8.40;;
11817;SDS011;5966;52.402;5.322;2022-10-31T05:51:15;9.53;;;8.50;;
11817;SDS011;5966;52.402;5.322;2022-10-31T05:53:43;13.90;;;8.90;;
11817;SDS011;5966;52.402;5.322;2022-10-31T05:56:12;14.00;;;8.63;;
11817;SDS011;5966;52.402;5.322;2022-10-31T05:58:41;12.87;;;9.20;;
11817;SDS011;5966;52.402;5.322;2022-10-31T06:01:12;11.23;;;8.37;;
11817;SDS011;5966;52.402;5.322;2022-10-31T06:03:41;10.70;;;8.97;;
11817;SDS011;5966;52.402;5.322;2022-10-31T06:09:06;11.50;;;8.20;;
11817;SDS011;5966;52.402;5.322;2022-10-31T06:11:35;10.67;;;8.40;;
11817;SDS011;5966;52.402;5.322;2022-10-31T06:14:22;12.43;;;8.63;;
11817;SDS011;5966;52.402;5.322;2022-10-31T06:16:49;11.03;;;8.77;;
11817;SDS011;5966;52.402;5.322;2022-10-31T06:19:20;10.53;;;7.93;;
11817;SDS011;5966;52.402;5.322;2022-10-31T06:22:00;10.73;;;8.27;;
11817;SDS011;5966;52.402;5.322;2022-10-31T06:24:28;11.07;;;8.47;;
11817;SDS011;5966;52.402;5.322;2022-10-31T06:26:56;11.97;;;8.50;;
11817;SDS011;5966;52.402;5.322;2022-10-31T06:29:24;11.43;;;8.57;;
11817;SDS011;5966;52.402;5.322;2022-10-31T06:31:53;11.20;;;8.77;;
11817;SDS011;5966;52.402;5.322;2022-10-31T06:34:23;11.70;;;9.17;;
11817;SDS011;5966;52.402;5.322;2022-10-31T06:36:53;12.17;;;8.80;;
11817;SDS011;5966;52.402;5.322;2022-10-31T06:39:25;12.33;;;9.10;;
11817;SDS011;5966;52.402;5.322;2022-10-31T06:41:54;12.97;;;8.83;;
11817;SDS011;5966;52.402;5.322;2022-10-31T06:44:32;12.00;;;9.70;;
11817;SDS011;5966;52.402;5.322;2022-10-31T06:47:00;11.83;;;8.77;;
11817;SDS011;5966;52.402;5.322;2022-10-31T06:49:28;11.60;;;8.67;;
11817;SDS011;5966;52.402;5.322;2022-10-31T06:51:57;12.27;;;9.23;;
11817;SDS011;5966;52.402;5.322;2022-10-31T06:54:27;12.83;;;9.27;;
11817;SDS011;5966;52.402;5.322;2022-10-31T06:56:54;12.70;;;9.07;;
11817;SDS011;5966;52.402;5.322;2022-10-31T06:59:23;11.63;;;8.77;;
11817;SDS011;5966;52.402;5.322;2022-10-31T07:01:51;14.67;;;9.37;;
11817;SDS011;5966;52.402;5.322;2022-10-31T07:04:19;9.97;;;8.37;;
11817;SDS011;5966;52.402;5.322;2022-10-31T07:06:50;11.10;;;9.13;;
11817;SDS011;5966;52.402;5.322;2022-10-31T07:09:17;10.10;;;8.67;;
11817;SDS011;5966;52.402;5.322;2022-10-31T07:11:47;11.60;;;9.27;;
11817;SDS011;5966;52.402;5.322;2022-10-31T07:14:18;14.13;;;9.50;;
11817;SDS011;5966;52.402;5.322;2022-10-31T07:16:50;10.53;;;8.90;;
11817;SDS011;5966;52.402;5.322;2022-10-31T07:19:18;11.97;;;9.17;;
11817;SDS011;5966;52.402;5.322;2022-10-31T07:21:47;10.97;;;8.73;;
11817;SDS011;5966;52.402;5.322;2022-10-31T07:24:14;13.20;;;9.37;;
11817;SDS011;5966;52.402;5.322;2022-10-31T07:26:48;13.00;;;9.17;;
11817;SDS011;5966;52.402;5.322;2022-10-31T07:29:16;11.90;;;9.17;;
11817;SDS011;5966;52.402;5.322;2022-10-31T07:31:47;10.77;;;9.47;;
11817;SDS011;5966;52.402;5.322;2022-10-31T07:37:15;14.67;;;9.80;;
11817;SDS011;5966;52.402;5.322;2022-10-31T07:39:43;13.03;;;9.13;;
11817;SDS011;5966;52.402;5.322;2022-10-31T07:42:42;12.13;;;8.77;;
11817;SDS011;5966;52.402;5.322;2022-10-31T07:45:31;10.90;;;8.57;;
11817;SDS011;5966;52.402;5.322;2022-10-31T07:47:59;11.87;;;8.67;;
11817;SDS011;5966;52.402;5.322;2022-10-31T07:50:31;12.63;;;8.93;;
11817;SDS011;5966;52.402;5.322;2022-10-31T07:53:11;12.03;;;9.63;;
11817;SDS011;5966;52.402;5.322;2022-10-31T07:55:40;11.77;;;9.50;;
11817;SDS011;5966;52.402;5.322;2022-10-31T07:58:10;11.17;;;9.33;;
11817;SDS011;5966;52.402;5.322;2022-10-31T08:00:40;10.80;;;8.83;;
11817;SDS011;5966;52.402;5.322;2022-10-31T08:03:09;12.23;;;9.60;;
11817;SDS011;5966;52.402;5.322;2022-10-31T08:05:41;12.13;;;9.90;;
11817;SDS011;5966;52.402;5.322;2022-10-31T08:08:33;11.47;;;9.73;;
11817;SDS011;5966;52.402;5.322;2022-10-31T08:11:03;14.10;;;9.47;;
11817;SDS011;5966;52.402;5.322;2022-10-31T08:13:46;10.83;;;9.53;;
11817;SDS011;5966;52.402;5.322;2022-10-31T08:16:30;11.63;;;9.97;;
11817;SDS011;5966;52.402;5.322;2022-10-31T08:19:02;11.37;;;9.83;;
11817;SDS011;5966;52.402;5.322;2022-10-31T08:21:37;15.17;;;9.50;;
11817;SDS011;5966;52.402;5.322;2022-10-31T08:24:05;13.93;;;10.43;;
11817;SDS011;5966;52.402;5.322;2022-10-31T08:26:33;14.57;;;10.20;;
11817;SDS011;5966;52.402;5.322;2022-10-31T08:29:04;15.60;;;9.87;;
11817;SDS011;5966;52.402;5.322;2022-10-31T08:31:36;13.00;;;10.10;;
11817;SDS011;5966;52.402;5.322;2022-10-31T08:34:08;12.00;;;10.00;;
11817;SDS011;5966;52.402;5.322;2022-10-31T08:36:36;13.17;;;9.83;;
11817;SDS011;5966;52.402;5.322;2022-10-31T08:39:12;12.40;;;9.97;;
11817;SDS011;5966;52.402;5.322;2022-10-31T08:41:41;11.33;;;9.73;;
11817;SDS011;5966;52.402;5.322;2022-10-31T08:44:10;11.43;;;9.50;;
11817;SDS011;5966;52.402;5.322;2022-10-31T08:46:38;11.60;;;9.67;;
11817;SDS011;5966;52.402;5.322;2022-10-31T08:49:06;14.77;;;10.00;;
11817;SDS011;5966;52.402;5.322;2022-10-31T08:51:34;11.83;;;10.30;;
11817;SDS011;5966;52.402;5.322;2022-10-31T08:54:05;13.13;;;9.90;;
11817;SDS011;5966;52.402;5.322;2022-10-31T08:56:47;15.93;;;10.20;;
11817;SDS011;5966;52.402;5.322;2022-10-31T08:59:30;11.83;;;10.33;;
11817;SDS011;5966;52.402;5.322;2022-10-31T09:01:58;16.67;;;10.60;;
11817;SDS011;5966;52.402;5.322;2022-10-31T09:04:26;11.90;;;10.27;;
11817;SDS011;5966;52.402;5.322;2022-10-31T09:06:54;16.30;;;11.47;;
11817;SDS011;5966;52.402;5.322;2022-10-31T09:09:43;12.00;;;10.57;;
11817;SDS011;5966;52.402;5.322;2022-10-31T09:12:11;18.30;;;11.63;;
11817;SDS011;5966;52.402;5.322;2022-10-31T09:15:13;14.90;;;11.47;;
11817;SDS011;5966;52.402;5.322;2022-10-31T09:17:49;14.20;;;11.13;;
11817;SDS011;5966;52.402;5.322;2022-10-31T09:20:30;17.43;;;11.97;;
11817;SDS011;5966;52.402;5.322;2022-10-31T09:23:07;15.33;;;10.57;;
11817;SDS011;5966;52.402;5.322;2022-10-31T09:25:37;14.40;;;11.80;;
11817;SDS011;5966;52.402;5.322;2022-10-31T09:28:06;18.90;;;12.77;;
11817;SDS011;5966;52.402;5.322;2022-10-31T09:30:38;16.33;;;11.97;;
11817;SDS011;5966;52.402;5.322;2022-10-31T09:33:25;13.90;;;11.40;;
11817;SDS011;5966;52.402;5.322;2022-10-31T09:35:57;12.97;;;11.03;;
11817;SDS011;5966;52.402;5.322;2022-10-31T09:38:25;14.13;;;11.20;;
11817;SDS011;5966;52.402;5.322;2022-10-31T09:40:55;15.97;;;12.70;;
11817;SDS011;5966;52.402;5.322;2022-10-31T09:43:58;14.80;;;11.20;;
11817;SDS011;5966;52.402;5.322;2022-10-31T09:46:41;16.43;;;11.17;;
11817;SDS011;5966;52.402;5.322;2022-10-31T09:49:39;13.30;;;10.60;;
11817;SDS011;5966;52.402;5.322;2022-10-31T09:52:20;14.23;;;10.20;;
11817;SDS011;5966;52.402;5.322;2022-10-31T09:55:02;13.37;;;11.13;;
11817;SDS011;5966;52.402;5.322;2022-10-31T09:57:43;18.27;;;11.07;;
11817;SDS011;5966;52.402;5.322;2022-10-31T10:00:19;14.40;;;10.30;;
11817;SDS011;5966;52.402;5.322;2022-10-31T10:02:59;14.50;;;9.77;;
11817;SDS011;5966;52.402;5.322;2022-10-31T10:05:37;11.20;;;9.40;;
11817;SDS011;5966;52.402;5.322;2022-10-31T10:08:21;16.40;;;11.43;;
11817;SDS011;5966;52.402;5.322;2022-10-31T10:14:10;14.77;;;9.87;;
11817;SDS011;5966;52.402;5.322;2022-10-31T10:17:00;12.73;;;9.80;;
11817;SDS011;5966;52.402;5.322;2022-10-31T10:22:52;14.10;;;10.03;;
11817;SDS011;5966;52.402;5.322;2022-10-31T10:25:37;14.80;;;10.13;;
11817;SDS011;5966;52.402;5.322;2022-10-31T10:28:10;11.23;;;9.37;;
11817;SDS011;5966;52.402;5.322;2022-10-31T10:30:51;9.80;;;8.80;;
11817;SDS011;5966;52.402;5.322;2022-10-31T10:33:27;12.43;;;9.17;;
11817;SDS011;5966;52.402;5.322;2022-10-31T10:36:09;13.73;;;8.80;;
11817;SDS011;5966;52.402;5.322;2022-10-31T10:38:46;11.07;;;8.60;;
11817;SDS011;5966;52.402;5.322;2022-10-31T10:41:27;12.63;;;8.13;;
11817;SDS011;5966;52.402;5.322;2022-10-31T10:44:08;12.97;;;9.07;;
11817;SDS011;5966;52.402;5.322;2022-10-31T10:47:24;11.00;;;9.10;;
11817;SDS011;5966;52.402;5.322;2022-10-31T10:50:09;12.00;;;8.87;;
11817;SDS011;5966;52.402;5.322;2022-10-31T10:52:44;13.97;;;9.57;;
11817;SDS011;5966;52.402;5.322;2022-10-31T10:55:23;11.73;;;8.50;;
11817;SDS011;5966;52.402;5.322;2022-10-31T10:58:00;11.37;;;8.00;;
11817;SDS011;5966;52.402;5.322;2022-10-31T11:00:30;10.40;;;7.63;;
11817;SDS011;5966;52.402;5.322;2022-10-31T11:03:02;12.03;;;8.03;;
11817;SDS011;5966;52.402;5.322;2022-10-31T11:05:33;11.80;;;7.57;;
11817;SDS011;5966;52.402;5.322;2022-10-31T11:08:06;12.57;;;7.13;;
11817;SDS011;5966;52.402;5.322;2022-10-31T11:10:36;9.17;;;7.47;;
11817;SDS011;5966;52.402;5.322;2022-10-31T11:13:17;12.00;;;7.70;;
11817;SDS011;5966;52.402;5.322;2022-10-31T11:15:50;9.83;;;6.37;;
11817;SDS011;5966;52.402;5.322;2022-10-31T11:18:25;6.33;;;5.73;;
11817;SDS011;5966;52.402;5.322;2022-10-31T11:20:57;11.07;;;6.17;;
11817;SDS011;5966;52.402;5.322;2022-10-31T11:23:30;8.30;;;5.93;;
11817;SDS011;5966;52.402;5.322;2022-10-31T11:25:59;9.47;;;6.27;;
11817;SDS011;5966;52.402;5.322;2022-10-31T11:28:28;8.23;;;5.67;;
11817;SDS011;5966;52.402;5.322;2022-10-31T11:30:59;7.80;;;6.67;;
11817;SDS011;5966;52.402;5.322;2022-10-31T11:33:29;6.87;;;5.90;;
11817;SDS011;5966;52.402;5.322;2022-10-31T11:36:00;9.87;;;6.50;;
11817;SDS011;5966;52.402;5.322;2022-10-31T11:38:31;7.70;;;6.80;;
11817;SDS011;5966;52.402;5.322;2022-10-31T11:41:05;10.27;;;6.87;;
11817;SDS011;5966;52.402;5.322;2022-10-31T11:43:38;13.73;;;8.47;;
11817;SDS011;5966;52.402;5.322;2022-10-31T11:46:14;17.63;;;10.50;;
11817;SDS011;5966;52.402;5.322;2022-10-31T11:48:47;13.73;;;8.50;;
11817;SDS011;5966;52.402;5.322;2022-10-31T11:51:19;12.20;;;8.53;;
11817;SDS011;5966;52.402;5.322;2022-10-31T11:53:51;12.70;;;8.37;;
11817;SDS011;5966;52.402;5.322;2022-10-31T11:56:27;13.13;;;8.10;;
11817;SDS011;5966;52.402;5.322;2022-10-31T11:59:05;11.20;;;8.10;;
11817;SDS011;5966;52.402;5.322;2022-10-31T12:01:46;12.50;;;8.07;;
11817;SDS011;5966;52.402;5.322;2022-10-31T12:04:17;12.73;;;8.73;;
11817;SDS011;5966;52.402;5.322;2022-10-31T12:06:47;14.20;;;8.63;;
11817;SDS011;5966;52.402;5.322;2022-10-31T12:09:24;13.30;;;8.67;;
11817;SDS011;5966;52.402;5.322;2022-10-31T12:12:05;11.93;;;9.20;;
11817;SDS011;5966;52.402;5.322;2022-10-31T12:14:59;11.73;;;8.60;;
11817;SDS011;5966;52.402;5.322;2022-10-31T12:17:49;13.33;;;9.17;;
11817;SDS011;5966;52.402;5.322;2022-10-31T12:20:30;13.47;;;9.07;;
11817;SDS011;5966;52.402;5.322;2022-10-31T12:23:09;14.43;;;9.23;;
11817;SDS011;5966;52.402;5.322;2022-10-31T12:25:50;15.63;;;9.03;;
11817;SDS011;5966;52.402;5.322;2022-10-31T12:28:37;14.53;;;9.40;;
11817;SDS011;5966;52.402;5.322;2022-10-31T12:31:47;14.57;;;9.80;;
11817;SDS011;5966;52.402;5.322;2022-10-31T12:34:44;17.33;;;10.27;;
11817;SDS011;5966;52.402;5.322;2022-10-31T12:37:33;14.23;;;10.00;;
11817;SDS011;5966;52.402;5.322;2022-10-31T12:40:26;17.90;;;10.47;;
11817;SDS011;5966;52.402;5.322;2022-10-31T12:43:16;13.60;;;9.53;;
11817;SDS011;5966;52.402;5.322;2022-10-31T12:45:57;14.70;;;10.10;;
11817;SDS011;5966;52.402;5.322;2022-10-31T12:51:30;15.47;;;10.17;;
11817;SDS011;5966;52.402;5.322;2022-10-31T12:54:09;17.63;;;10.03;;
11817;SDS011;5966;52.402;5.322;2022-10-31T12:56:50;15.80;;;10.60;;
11817;SDS011;5966;52.402;5.322;2022-10-31T12:59:31;16.63;;;11.57;;
11817;SDS011;5966;52.402;5.322;2022-10-31T13:02:09;18.80;;;11.27;;
11817;SDS011;5966;52.402;5.322;2022-10-31T13:04:44;20.27;;;12.20;;
11817;SDS011;5966;52.402;5.322;2022-10-31T13:07:19;22.20;;;11.67;;
11817;SDS011;5966;52.402;5.322;2022-10-31T13:10:05;19.53;;;11.67;;
11817;SDS011;5966;52.402;5.322;2022-10-31T13:12:42;15.87;;;11.10;;
11817;SDS011;5966;52.402;5.322;2022-10-31T13:15:22;21.77;;;11.87;;
11817;SDS011;5966;52.402;5.322;2022-10-31T13:17:55;16.30;;;11.37;;
11817;SDS011;5966;52.402;5.322;2022-10-31T13:20:28;24.37;;;12.40;;
11817;SDS011;5966;52.402;5.322;2022-10-31T13:23:02;20.27;;;12.13;;
11817;SDS011;5966;52.402;5.322;2022-10-31T13:26:00;20.47;;;12.83;;
11817;SDS011;5966;52.402;5.322;2022-10-31T13:28:40;22.30;;;12.23;;
11817;SDS011;5966;52.402;5.322;2022-10-31T13:31:20;18.93;;;12.27;;
11817;SDS011;5966;52.402;5.322;2022-10-31T13:33:48;21.87;;;12.33;;
11817;SDS011;5966;52.402;5.322;2022-10-31T13:36:25;20.87;;;11.83;;
11817;SDS011;5966;52.402;5.322;2022-10-31T13:39:02;21.10;;;11.50;;
11817;SDS011;5966;52.402;5.322;2022-10-31T13:41:47;17.37;;;10.77;;
11817;SDS011;5966;52.402;5.322;2022-10-31T13:44:22;16.60;;;10.83;;
11817;SDS011;5966;52.402;5.322;2022-10-31T13:46:53;15.30;;;10.83;;
11817;SDS011;5966;52.402;5.322;2022-10-31T13:49:38;16.80;;;11.20;;
11817;SDS011;5966;52.402;5.322;2022-10-31T13:52:15;16.97;;;11.50;;
11817;SDS011;5966;52.402;5.322;2022-10-31T13:54:55;21.40;;;11.77;;
11817;SDS011;5966;52.402;5.322;2022-10-31T13:57:30;19.97;;;12.20;;
11817;SDS011;5966;52.402;5.322;2022-10-31T14:00:03;23.83;;;12.47;;
11817;SDS011;5966;52.402;5.322;2022-10-31T14:02:51;17.77;;;12.23;;
11817;SDS011;5966;52.402;5.322;2022-10-31T14:05:25;23.37;;;12.70;;
11817;SDS011;5966;52.402;5.322;2022-10-31T14:07:59;18.90;;;13.20;;
11817;SDS011;5966;52.402;5.322;2022-10-31T14:10:33;26.53;;;13.17;;
11817;SDS011;5966;52.402;5.322;2022-10-31T14:13:05;19.13;;;13.17;;
11817;SDS011;5966;52.402;5.322;2022-10-31T14:15:36;19.43;;;12.77;;
11817;SDS011;5966;52.402;5.322;2022-10-31T14:18:23;21.43;;;12.43;;
11817;SDS011;5966;52.402;5.322;2022-10-31T14:21:00;21.07;;;13.07;;
11817;SDS011;5966;52.402;5.322;2022-10-31T14:23:43;18.93;;;12.73;;
11817;SDS011;5966;52.402;5.322;2022-10-31T14:26:17;18.07;;;11.90;;
11817;SDS011;5966;52.402;5.322;2022-10-31T14:31:52;19.97;;;12.40;;
11817;SDS011;5966;52.402;5.322;2022-10-31T14:34:36;18.97;;;12.47;;
11817;SDS011;5966;52.402;5.322;2022-10-31T14:37:14;17.33;;;11.43;;
11817;SDS011;5966;52.402;5.322;2022-10-31T14:40:20;18.53;;;12.40;;
11817;SDS011;5966;52.402;5.322;2022-10-31T14:43:02;17.53;;;12.23;;
11817;SDS011;5966;52.402;5.322;2022-10-31T14:45:49;18.00;;;12.87;;
11817;SDS011;5966;52.402;5.322;2022-10-31T14:48:27;18.27;;;12.90;;
11817;SDS011;5966;52.402;5.322;2022-10-31T14:51:13;19.67;;;13.20;;
11817;SDS011;5966;52.402;5.322;2022-10-31T14:53:46;18.47;;;11.50;;
11817;SDS011;5966;52.402;5.322;2022-10-31T14:56:19;18.93;;;12.17;;
11817;SDS011;5966;52.402;5.322;2022-10-31T14:58:49;17.53;;;12.00;;
11817;SDS011;5966;52.402;5.322;2022-10-31T15:01:21;20.20;;;11.40;;
11817;SDS011;5966;52.402;5.322;2022-10-31T15:03:52;19.57;;;12.17;;
11817;SDS011;5966;52.402;5.322;2022-10-31T15:06:49;20.40;;;12.53;;
11817;SDS011;5966;52.402;5.322;2022-10-31T15:09:32;18.13;;;11.60;;
11817;SDS011;5966;52.402;5.322;2022-10-31T15:15:10;17.33;;;12.27;;
11817;SDS011;5966;52.402;5.322;2022-10-31T15:17:42;17.63;;;12.57;;
11817;SDS011;5966;52.402;5.322;2022-10-31T15:20:18;19.27;;;12.93;;
11817;SDS011;5966;52.402;5.322;2022-10-31T15:22:58;15.60;;;11.77;;
11817;SDS011;5966;52.402;5.322;2022-10-31T15:25:32;19.17;;;11.70;;
11817;SDS011;5966;52.402;5.322;2022-10-31T15:28:12;18.77;;;12.20;;
11817;SDS011;5966;52.402;5.322;2022-10-31T15:30:48;20.07;;;12.73;;
11817;SDS011;5966;52.402;5.322;2022-10-31T15:33:27;19.50;;;12.17;;
11817;SDS011;5966;52.402;5.322;2022-10-31T15:36:05;16.73;;;11.80;;
11817;SDS011;5966;52.402;5.322;2022-10-31T15:38:58;19.00;;;11.20;;
11817;SDS011;5966;52.402;5.322;2022-10-31T15:41:29;18.20;;;12.53;;
11817;SDS011;5966;52.402;5.322;2022-10-31T15:44:03;19.80;;;12.20;;
11817;SDS011;5966;52.402;5.322;2022-10-31T15:46:38;18.73;;;12.40;;
11817;SDS011;5966;52.402;5.322;2022-10-31T15:49:10;22.03;;;12.70;;
11817;SDS011;5966;52.402;5.322;2022-10-31T15:51:55;16.97;;;12.13;;
11817;SDS011;5966;52.402;5.322;2022-10-31T15:54:28;19.13;;;12.60;;
11817;SDS011;5966;52.402;5.322;2022-10-31T15:56:58;18.70;;;12.90;;
11817;SDS011;5966;52.402;5.322;2022-10-31T15:59:30;19.80;;;12.73;;
11817;SDS011;5966;52.402;5.322;2022-10-31T16:02:02;21.03;;;12.77;;
11817;SDS011;5966;52.402;5.322;2022-10-31T16:04:47;19.63;;;12.80;;
11817;SDS011;5966;52.402;5.322;2022-10-31T16:07:47;18.30;;;12.10;;
11817;SDS011;5966;52.402;5.322;2022-10-31T16:13:07;17.37;;;12.73;;
11817;SDS011;5966;52.402;5.322;2022-10-31T16:15:47;20.53;;;13.30;;